sensor_id;sensor_type;location;lat;lon;timestamp;P1;durP1;ratioP1;P2;durP2;ratioP2
7843;SDS011;3967;48.702;9.326;2023-04-06T00:00:49;11.50;;;7.80;;
7843;SDS011;3967;48.702;9.326;2023-04-06T00:03:16;10.43;;;7.87;;
7843;SDS011;3967;48.702;9.326;2023-04-06T00:05:43;11.57;;;8.30;;
7843;SDS011;3967;48.702;9.326;2023-04-06T00:08:11;10.37;;;8.00;;
7843;SDS011;3967;48.702;9.326;2023-04-06T00:10:37;9.57;;;7.67;;
7843;SDS011;3967;48.702;9.326;2023-04-06T00:13:04;9.97;;;7.97;;
7843;SDS011;3967;48.702;9.326;2023-04-06T00:15:32;11.20;;;8.50;;
7843;SDS011;3967;48.702;9.326;2023-04-06T00:17:58;11.47;;;7.97;;
7843;SDS011;3967;48.702;9.326;2023-04-06T00:20:25;10.57;;;7.70;;
7843;SDS011;3967;48.702;9.326;2023-04-06T00:22:52;11.33;;;7.77;;
7843;SDS011;3967;48.702;9.326;2023-04-06T00:25:20;10.33;;;8.00;;
7843;SDS011;3967;48.702;9.326;2023-04-06T00:27:46;13.03;;;9.23;;
7843;SDS011;3967;48.702;9.326;2023-04-06T00:30:13;11.03;;;8.47;;
7843;SDS011;3967;48.702;9.326;2023-04-06T00:32:40;12.87;;;8.97;;
7843;SDS011;3967;48.702;9.326;2023-04-06T00:35:07;10.27;;;8.50;;
7843;SDS011;3967;48.702;9.326;2023-04-06T00:37:34;11.90;;;8.30;;
7843;SDS011;3967;48.702;9.326;2023-04-06T00:40:01;9.20;;;8.23;;
7843;SDS011;3967;48.702;9.326;2023-04-06T00:42:28;10.53;;;8.83;;
7843;SDS011;3967;48.702;9.326;2023-04-06T00:44:56;10.00;;;8.23;;
7843;SDS011;3967;48.702;9.326;2023-04-06T00:47:26;13.67;;;9.10;;
7843;SDS011;3967;48.702;9.326;2023-04-06T00:49:54;13.97;;;9.67;;
7843;SDS011;3967;48.702;9.326;2023-04-06T00:52:21;13.87;;;9.37;;
7843;SDS011;3967;48.702;9.326;2023-04-06T00:54:48;12.90;;;9.00;;
7843;SDS011;3967;48.702;9.326;2023-04-06T00:57:16;12.50;;;9.67;;
7843;SDS011;3967;48.702;9.326;2023-04-06T00:59:44;12.53;;;8.70;;
7843;SDS011;3967;48.702;9.326;2023-04-06T01:02:11;11.87;;;8.70;;
7843;SDS011;3967;48.702;9.326;2023-04-06T01:04:38;12.13;;;9.63;;
7843;SDS011;3967;48.702;9.326;2023-04-06T01:07:05;13.30;;;9.07;;
7843;SDS011;3967;48.702;9.326;2023-04-06T01:09:32;13.60;;;9.13;;
7843;SDS011;3967;48.702;9.326;2023-04-06T01:11:59;12.17;;;8.77;;
7843;SDS011;3967;48.702;9.326;2023-04-06T01:14:25;11.70;;;8.63;;
7843;SDS011;3967;48.702;9.326;2023-04-06T01:16:52;12.07;;;9.03;;
7843;SDS011;3967;48.702;9.326;2023-04-06T01:19:19;11.10;;;8.93;;
7843;SDS011;3967;48.702;9.326;2023-04-06T01:21:48;12.37;;;8.70;;
7843;SDS011;3967;48.702;9.326;2023-04-06T01:24:15;10.20;;;9.10;;
7843;SDS011;3967;48.702;9.326;2023-04-06T01:26:42;12.77;;;8.10;;
7843;SDS011;3967;48.702;9.326;2023-04-06T01:29:10;10.53;;;8.90;;
7843;SDS011;3967;48.702;9.326;2023-04-06T01:31:38;11.63;;;8.87;;
7843;SDS011;3967;48.702;9.326;2023-04-06T01:34:06;10.80;;;9.17;;
7843;SDS011;3967;48.702;9.326;2023-04-06T01:36:33;10.33;;;8.83;;
7843;SDS011;3967;48.702;9.326;2023-04-06T01:38:59;13.53;;;9.23;;
7843;SDS011;3967;48.702;9.326;2023-04-06T01:41:26;12.03;;;9.17;;
7843;SDS011;3967;48.702;9.326;2023-04-06T01:43:53;10.37;;;8.00;;
7843;SDS011;3967;48.702;9.326;2023-04-06T01:46:20;11.50;;;8.60;;
7843;SDS011;3967;48.702;9.326;2023-04-06T01:48:47;13.27;;;8.17;;
7843;SDS011;3967;48.702;9.326;2023-04-06T01:51:15;10.93;;;7.97;;
7843;SDS011;3967;48.702;9.326;2023-04-06T01:53:41;10.80;;;7.80;;
7843;SDS011;3967;48.702;9.326;2023-04-06T01:56:08;10.57;;;7.93;;
7843;SDS011;3967;48.702;9.326;2023-04-06T01:58:35;10.40;;;7.93;;
7843;SDS011;3967;48.702;9.326;2023-04-06T02:01:02;11.47;;;8.63;;
7843;SDS011;3967;48.702;9.326;2023-04-06T02:03:29;10.90;;;8.43;;
7843;SDS011;3967;48.702;9.326;2023-04-06T02:05:56;10.87;;;8.73;;
7843;SDS011;3967;48.702;9.326;2023-04-06T02:08:23;11.37;;;7.93;;
7843;SDS011;3967;48.702;9.326;2023-04-06T02:10:50;9.87;;;8.33;;
7843;SDS011;3967;48.702;9.326;2023-04-06T02:13:17;10.43;;;8.03;;
7843;SDS011;3967;48.702;9.326;2023-04-06T02:15:43;12.53;;;9.27;;
7843;SDS011;3967;48.702;9.326;2023-04-06T02:18:10;9.57;;;7.83;;
7843;SDS011;3967;48.702;9.326;2023-04-06T02:20:37;10.17;;;8.17;;
7843;SDS011;3967;48.702;9.326;2023-04-06T02:23:04;9.53;;;8.17;;
7843;SDS011;3967;48.702;9.326;2023-04-06T02:25:30;10.23;;;8.30;;
7843;SDS011;3967;48.702;9.326;2023-04-06T02:27:57;10.53;;;8.67;;
7843;SDS011;3967;48.702;9.326;2023-04-06T02:30:24;9.30;;;8.00;;
7843;SDS011;3967;48.702;9.326;2023-04-06T02:32:50;11.47;;;8.37;;
7843;SDS011;3967;48.702;9.326;2023-04-06T02:35:17;11.70;;;7.77;;
7843;SDS011;3967;48.702;9.326;2023-04-06T02:37:44;11.70;;;8.40;;
7843;SDS011;3967;48.702;9.326;2023-04-06T02:40:11;8.53;;;7.43;;
7843;SDS011;3967;48.702;9.326;2023-04-06T02:42:38;10.20;;;8.23;;
7843;SDS011;3967;48.702;9.326;2023-04-06T02:45:05;10.07;;;7.93;;
7843;SDS011;3967;48.702;9.326;2023-04-06T02:47:32;11.23;;;8.27;;
7843;SDS011;3967;48.702;9.326;2023-04-06T02:49:59;11.10;;;8.53;;
7843;SDS011;3967;48.702;9.326;2023-04-06T02:52:26;11.40;;;8.30;;
7843;SDS011;3967;48.702;9.326;2023-04-06T02:54:53;10.63;;;8.17;;
7843;SDS011;3967;48.702;9.326;2023-04-06T02:57:20;10.47;;;7.80;;
7843;SDS011;3967;48.702;9.326;2023-04-06T02:59:47;9.80;;;7.63;;
7843;SDS011;3967;48.702;9.326;2023-04-06T03:02:13;10.10;;;8.13;;
7843;SDS011;3967;48.702;9.326;2023-04-06T03:04:41;11.90;;;7.73;;
7843;SDS011;3967;48.702;9.326;2023-04-06T03:07:08;8.93;;;8.00;;
7843;SDS011;3967;48.702;9.326;2023-04-06T03:09:36;11.00;;;7.50;;
7843;SDS011;3967;48.702;9.326;2023-04-06T03:12:04;12.73;;;8.50;;
7843;SDS011;3967;48.702;9.326;2023-04-06T03:14:34;9.03;;;7.43;;
7843;SDS011;3967;48.702;9.326;2023-04-06T03:17:01;9.87;;;7.33;;
7843;SDS011;3967;48.702;9.326;2023-04-06T03:19:28;9.67;;;7.47;;
7843;SDS011;3967;48.702;9.326;2023-04-06T03:21:55;13.47;;;7.90;;
7843;SDS011;3967;48.702;9.326;2023-04-06T03:24:21;9.47;;;7.53;;
7843;SDS011;3967;48.702;9.326;2023-04-06T03:26:48;12.30;;;8.67;;
7843;SDS011;3967;48.702;9.326;2023-04-06T03:29:15;10.63;;;7.77;;
7843;SDS011;3967;48.702;9.326;2023-04-06T03:31:42;11.67;;;7.80;;
7843;SDS011;3967;48.702;9.326;2023-04-06T03:34:08;8.77;;;7.30;;
7843;SDS011;3967;48.702;9.326;2023-04-06T03:36:35;8.90;;;7.80;;
7843;SDS011;3967;48.702;9.326;2023-04-06T03:39:02;10.37;;;7.50;;
7843;SDS011;3967;48.702;9.326;2023-04-06T03:41:29;9.37;;;7.57;;
7843;SDS011;3967;48.702;9.326;2023-04-06T03:43:56;8.97;;;7.70;;
7843;SDS011;3967;48.702;9.326;2023-04-06T03:46:22;8.40;;;6.87;;
7843;SDS011;3967;48.702;9.326;2023-04-06T03:48:49;10.67;;;7.87;;
7843;SDS011;3967;48.702;9.326;2023-04-06T03:51:16;11.93;;;8.83;;
7843;SDS011;3967;48.702;9.326;2023-04-06T03:53:43;10.07;;;7.57;;
7843;SDS011;3967;48.702;9.326;2023-04-06T03:56:09;9.20;;;8.17;;
7843;SDS011;3967;48.702;9.326;2023-04-06T03:58:36;8.57;;;7.67;;
7843;SDS011;3967;48.702;9.326;2023-04-06T04:01:03;8.93;;;7.77;;
7843;SDS011;3967;48.702;9.326;2023-04-06T04:03:30;13.07;;;9.23;;
7843;SDS011;3967;48.702;9.326;2023-04-06T04:05:57;9.03;;;8.10;;
7843;SDS011;3967;48.702;9.326;2023-04-06T04:08:24;10.97;;;8.67;;
7843;SDS011;3967;48.702;9.326;2023-04-06T04:10:51;8.70;;;7.57;;
7843;SDS011;3967;48.702;9.326;2023-04-06T04:13:18;10.70;;;7.70;;
7843;SDS011;3967;48.702;9.326;2023-04-06T04:15:45;11.40;;;7.40;;
7843;SDS011;3967;48.702;9.326;2023-04-06T04:18:13;9.87;;;8.63;;
7843;SDS011;3967;48.702;9.326;2023-04-06T04:20:40;9.30;;;8.20;;
7843;SDS011;3967;48.702;9.326;2023-04-06T04:23:07;11.60;;;7.97;;
7843;SDS011;3967;48.702;9.326;2023-04-06T04:25:34;11.90;;;8.63;;
7843;SDS011;3967;48.702;9.326;2023-04-06T04:28:01;11.57;;;8.53;;
7843;SDS011;3967;48.702;9.326;2023-04-06T04:30:28;9.80;;;8.30;;
7843;SDS011;3967;48.702;9.326;2023-04-06T04:32:55;11.07;;;8.33;;
7843;SDS011;3967;48.702;9.326;2023-04-06T04:35:22;10.40;;;8.10;;
7843;SDS011;3967;48.702;9.326;2023-04-06T04:37:49;10.10;;;6.70;;
7843;SDS011;3967;48.702;9.326;2023-04-06T04:40:15;9.33;;;7.87;;
7843;SDS011;3967;48.702;9.326;2023-04-06T04:42:42;9.80;;;7.07;;
7843;SDS011;3967;48.702;9.326;2023-04-06T04:45:09;11.57;;;8.47;;
7843;SDS011;3967;48.702;9.326;2023-04-06T04:47:36;11.23;;;7.87;;
7843;SDS011;3967;48.702;9.326;2023-04-06T04:50:03;10.00;;;8.00;;
7843;SDS011;3967;48.702;9.326;2023-04-06T04:52:30;8.40;;;7.47;;
7843;SDS011;3967;48.702;9.326;2023-04-06T04:54:57;12.90;;;7.07;;
7843;SDS011;3967;48.702;9.326;2023-04-06T04:57:24;9.10;;;7.10;;
7843;SDS011;3967;48.702;9.326;2023-04-06T04:59:51;10.73;;;7.50;;
7843;SDS011;3967;48.702;9.326;2023-04-06T05:02:17;9.37;;;7.60;;
7843;SDS011;3967;48.702;9.326;2023-04-06T05:04:44;9.53;;;7.57;;
7843;SDS011;3967;48.702;9.326;2023-04-06T05:07:11;10.57;;;8.03;;
7843;SDS011;3967;48.702;9.326;2023-04-06T05:09:38;13.77;;;8.03;;
7843;SDS011;3967;48.702;9.326;2023-04-06T05:12:05;9.43;;;7.57;;
7843;SDS011;3967;48.702;9.326;2023-04-06T05:14:32;10.93;;;8.07;;
7843;SDS011;3967;48.702;9.326;2023-04-06T05:16:59;10.87;;;8.40;;
7843;SDS011;3967;48.702;9.326;2023-04-06T05:19:26;11.10;;;8.80;;
7843;SDS011;3967;48.702;9.326;2023-04-06T05:21:52;10.60;;;8.57;;
7843;SDS011;3967;48.702;9.326;2023-04-06T05:24:19;9.30;;;6.90;;
7843;SDS011;3967;48.702;9.326;2023-04-06T05:26:46;11.37;;;8.70;;
7843;SDS011;3967;48.702;9.326;2023-04-06T05:29:13;12.37;;;8.43;;
7843;SDS011;3967;48.702;9.326;2023-04-06T05:31:40;9.63;;;7.70;;
7843;SDS011;3967;48.702;9.326;2023-04-06T05:34:07;10.73;;;8.67;;
7843;SDS011;3967;48.702;9.326;2023-04-06T05:36:35;10.57;;;8.40;;
7843;SDS011;3967;48.702;9.326;2023-04-06T05:39:02;10.87;;;9.20;;
7843;SDS011;3967;48.702;9.326;2023-04-06T05:41:29;12.20;;;8.80;;
7843;SDS011;3967;48.702;9.326;2023-04-06T05:43:55;13.17;;;8.30;;
7843;SDS011;3967;48.702;9.326;2023-04-06T05:46:22;12.40;;;8.57;;
7843;SDS011;3967;48.702;9.326;2023-04-06T05:48:49;12.43;;;8.37;;
7843;SDS011;3967;48.702;9.326;2023-04-06T05:51:16;12.07;;;9.77;;
7843;SDS011;3967;48.702;9.326;2023-04-06T05:53:42;12.70;;;8.73;;
7843;SDS011;3967;48.702;9.326;2023-04-06T05:56:09;12.13;;;8.03;;
7843;SDS011;3967;48.702;9.326;2023-04-06T05:58:36;14.50;;;8.83;;
7843;SDS011;3967;48.702;9.326;2023-04-06T06:01:03;9.37;;;8.03;;
7843;SDS011;3967;48.702;9.326;2023-04-06T06:03:30;17.47;;;9.57;;
7843;SDS011;3967;48.702;9.326;2023-04-06T06:06:01;13.40;;;9.50;;
7843;SDS011;3967;48.702;9.326;2023-04-06T06:08:30;10.90;;;8.40;;
7843;SDS011;3967;48.702;9.326;2023-04-06T06:10:57;13.47;;;9.47;;
7843;SDS011;3967;48.702;9.326;2023-04-06T06:13:24;12.17;;;8.57;;
7843;SDS011;3967;48.702;9.326;2023-04-06T06:15:51;10.53;;;8.27;;
7843;SDS011;3967;48.702;9.326;2023-04-06T06:18:18;12.40;;;9.03;;
7843;SDS011;3967;48.702;9.326;2023-04-06T06:20:45;13.70;;;8.90;;
7843;SDS011;3967;48.702;9.326;2023-04-06T06:23:11;14.83;;;8.87;;
7843;SDS011;3967;48.702;9.326;2023-04-06T06:25:38;12.77;;;8.97;;
7843;SDS011;3967;48.702;9.326;2023-04-06T06:28:05;14.37;;;8.93;;
7843;SDS011;3967;48.702;9.326;2023-04-06T06:30:32;9.90;;;8.07;;
7843;SDS011;3967;48.702;9.326;2023-04-06T06:32:59;11.60;;;9.30;;
7843;SDS011;3967;48.702;9.326;2023-04-06T06:35:26;15.00;;;8.47;;
7843;SDS011;3967;48.702;9.326;2023-04-06T06:37:53;11.00;;;9.13;;
7843;SDS011;3967;48.702;9.326;2023-04-06T06:40:20;14.50;;;9.20;;
7843;SDS011;3967;48.702;9.326;2023-04-06T06:42:50;10.23;;;8.70;;
7843;SDS011;3967;48.702;9.326;2023-04-06T06:45:17;12.07;;;8.63;;
7843;SDS011;3967;48.702;9.326;2023-04-06T06:47:44;13.50;;;8.80;;
7843;SDS011;3967;48.702;9.326;2023-04-06T06:50:12;11.77;;;9.03;;
7843;SDS011;3967;48.702;9.326;2023-04-06T06:52:39;13.30;;;9.37;;
7843;SDS011;3967;48.702;9.326;2023-04-06T06:55:08;12.00;;;9.37;;
7843;SDS011;3967;48.702;9.326;2023-04-06T06:57:35;10.57;;;8.70;;
7843;SDS011;3967;48.702;9.326;2023-04-06T07:00:02;10.57;;;9.17;;
7843;SDS011;3967;48.702;9.326;2023-04-06T07:02:31;11.83;;;8.47;;
7843;SDS011;3967;48.702;9.326;2023-04-06T07:04:59;16.90;;;8.37;;
7843;SDS011;3967;48.702;9.326;2023-04-06T07:07:27;11.57;;;8.20;;
7843;SDS011;3967;48.702;9.326;2023-04-06T07:09:54;10.27;;;8.60;;
7843;SDS011;3967;48.702;9.326;2023-04-06T07:12:21;11.33;;;8.73;;
7843;SDS011;3967;48.702;9.326;2023-04-06T07:14:47;14.57;;;9.97;;
7843;SDS011;3967;48.702;9.326;2023-04-06T07:17:14;11.67;;;8.77;;
7843;SDS011;3967;48.702;9.326;2023-04-06T07:19:41;10.17;;;8.90;;
7843;SDS011;3967;48.702;9.326;2023-04-06T07:22:08;11.27;;;8.70;;
7843;SDS011;3967;48.702;9.326;2023-04-06T07:24:35;10.63;;;8.47;;
7843;SDS011;3967;48.702;9.326;2023-04-06T07:27:02;12.30;;;10.07;;
7843;SDS011;3967;48.702;9.326;2023-04-06T07:29:29;12.57;;;9.20;;
7843;SDS011;3967;48.702;9.326;2023-04-06T07:31:55;11.90;;;8.77;;
7843;SDS011;3967;48.702;9.326;2023-04-06T07:34:22;11.27;;;8.90;;
7843;SDS011;3967;48.702;9.326;2023-04-06T07:36:49;11.43;;;8.50;;
7843;SDS011;3967;48.702;9.326;2023-04-06T07:39:19;11.13;;;8.80;;
7843;SDS011;3967;48.702;9.326;2023-04-06T07:41:46;10.97;;;9.47;;
7843;SDS011;3967;48.702;9.326;2023-04-06T07:44:12;11.07;;;8.70;;
7843;SDS011;3967;48.702;9.326;2023-04-06T07:46:39;12.40;;;9.27;;
7843;SDS011;3967;48.702;9.326;2023-04-06T07:49:06;9.63;;;8.70;;
7843;SDS011;3967;48.702;9.326;2023-04-06T07:51:35;11.70;;;9.13;;
7843;SDS011;3967;48.702;9.326;2023-04-06T07:54:03;9.83;;;8.83;;
7843;SDS011;3967;48.702;9.326;2023-04-06T07:56:31;15.77;;;8.20;;
7843;SDS011;3967;48.702;9.326;2023-04-06T07:58:57;13.80;;;8.50;;
7843;SDS011;3967;48.702;9.326;2023-04-06T08:01:27;10.90;;;8.83;;
7843;SDS011;3967;48.702;9.326;2023-04-06T08:03:54;11.03;;;8.47;;
7843;SDS011;3967;48.702;9.326;2023-04-06T08:06:22;9.43;;;8.33;;
7843;SDS011;3967;48.702;9.326;2023-04-06T08:08:49;10.33;;;8.47;;
7843;SDS011;3967;48.702;9.326;2023-04-06T08:11:16;11.27;;;8.87;;
7843;SDS011;3967;48.702;9.326;2023-04-06T08:13:43;11.90;;;8.60;;
7843;SDS011;3967;48.702;9.326;2023-04-06T08:16:10;11.50;;;9.10;;
7843;SDS011;3967;48.702;9.326;2023-04-06T08:18:37;10.87;;;9.20;;
7843;SDS011;3967;48.702;9.326;2023-04-06T08:21:04;11.67;;;8.67;;
7843;SDS011;3967;48.702;9.326;2023-04-06T08:23:31;8.57;;;7.67;;
7843;SDS011;3967;48.702;9.326;2023-04-06T08:25:58;8.77;;;7.87;;
7843;SDS011;3967;48.702;9.326;2023-04-06T08:28:24;10.57;;;8.33;;
7843;SDS011;3967;48.702;9.326;2023-04-06T08:30:51;11.33;;;8.40;;
7843;SDS011;3967;48.702;9.326;2023-04-06T08:33:18;9.80;;;8.50;;
7843;SDS011;3967;48.702;9.326;2023-04-06T08:35:45;11.63;;;8.40;;
7843;SDS011;3967;48.702;9.326;2023-04-06T08:38:12;10.60;;;7.70;;
7843;SDS011;3967;48.702;9.326;2023-04-06T08:40:39;10.37;;;8.20;;
7843;SDS011;3967;48.702;9.326;2023-04-06T08:43:06;12.13;;;8.83;;
7843;SDS011;3967;48.702;9.326;2023-04-06T08:45:38;10.30;;;8.33;;
7843;SDS011;3967;48.702;9.326;2023-04-06T08:48:06;10.63;;;8.07;;
7843;SDS011;3967;48.702;9.326;2023-04-06T08:50:35;12.90;;;8.27;;
7843;SDS011;3967;48.702;9.326;2023-04-06T08:53:02;10.87;;;8.50;;
7843;SDS011;3967;48.702;9.326;2023-04-06T08:55:29;12.03;;;8.90;;
7843;SDS011;3967;48.702;9.326;2023-04-06T08:57:56;10.77;;;8.10;;
7843;SDS011;3967;48.702;9.326;2023-04-06T09:00:23;10.17;;;8.23;;
7843;SDS011;3967;48.702;9.326;2023-04-06T09:02:51;9.17;;;8.17;;
7843;SDS011;3967;48.702;9.326;2023-04-06T09:05:21;11.20;;;8.47;;
7843;SDS011;3967;48.702;9.326;2023-04-06T09:07:51;8.80;;;7.37;;
7843;SDS011;3967;48.702;9.326;2023-04-06T09:10:18;10.30;;;8.03;;
7843;SDS011;3967;48.702;9.326;2023-04-06T09:12:46;9.73;;;8.03;;
7843;SDS011;3967;48.702;9.326;2023-04-06T09:15:20;8.03;;;7.20;;
7843;SDS011;3967;48.702;9.326;2023-04-06T09:17:50;8.40;;;7.53;;
7843;SDS011;3967;48.702;9.326;2023-04-06T09:20:23;14.13;;;8.13;;
7843;SDS011;3967;48.702;9.326;2023-04-06T09:22:57;11.67;;;7.57;;
7843;SDS011;3967;48.702;9.326;2023-04-06T09:25:24;9.63;;;7.57;;
7843;SDS011;3967;48.702;9.326;2023-04-06T09:28:02;8.83;;;7.57;;
7843;SDS011;3967;48.702;9.326;2023-04-06T09:30:30;8.93;;;7.60;;
7843;SDS011;3967;48.702;9.326;2023-04-06T09:32:57;9.33;;;7.53;;
7843;SDS011;3967;48.702;9.326;2023-04-06T09:35:26;8.83;;;7.70;;
7843;SDS011;3967;48.702;9.326;2023-04-06T09:37:53;9.27;;;7.50;;
7843;SDS011;3967;48.702;9.326;2023-04-06T09:40:21;10.53;;;8.47;;
7843;SDS011;3967;48.702;9.326;2023-04-06T09:42:49;10.00;;;8.00;;
7843;SDS011;3967;48.702;9.326;2023-04-06T09:45:18;9.10;;;8.10;;
7843;SDS011;3967;48.702;9.326;2023-04-06T09:47:45;10.17;;;7.97;;
7843;SDS011;3967;48.702;9.326;2023-04-06T09:50:12;10.83;;;7.83;;
7843;SDS011;3967;48.702;9.326;2023-04-06T09:52:42;9.60;;;7.73;;
7843;SDS011;3967;48.702;9.326;2023-04-06T09:55:15;9.80;;;8.00;;
7843;SDS011;3967;48.702;9.326;2023-04-06T10:00:15;8.93;;;6.90;;
7843;SDS011;3967;48.702;9.326;2023-04-06T10:05:43;5.70;;;5.10;;
7843;SDS011;3967;48.702;9.326;2023-04-06T10:08:11;7.83;;;6.07;;
7843;SDS011;3967;48.702;9.326;2023-04-06T10:10:39;10.23;;;6.60;;
7843;SDS011;3967;48.702;9.326;2023-04-06T10:13:09;6.23;;;5.63;;
7843;SDS011;3967;48.702;9.326;2023-04-06T10:15:37;5.63;;;5.03;;
7843;SDS011;3967;48.702;9.326;2023-04-06T10:18:05;5.23;;;4.70;;
7843;SDS011;3967;48.702;9.326;2023-04-06T10:23:19;7.50;;;6.03;;
7843;SDS011;3967;48.702;9.326;2023-04-06T10:25:53;6.57;;;5.10;;
7843;SDS011;3967;48.702;9.326;2023-04-06T10:28:25;6.10;;;5.50;;
7843;SDS011;3967;48.702;9.326;2023-04-06T10:31:00;8.50;;;6.43;;
7843;SDS011;3967;48.702;9.326;2023-04-06T10:33:28;8.73;;;6.13;;
7843;SDS011;3967;48.702;9.326;2023-04-06T10:35:55;8.03;;;5.67;;
7843;SDS011;3967;48.702;9.326;2023-04-06T10:38:35;6.83;;;6.00;;
7843;SDS011;3967;48.702;9.326;2023-04-06T10:41:07;7.63;;;6.60;;
7843;SDS011;3967;48.702;9.326;2023-04-06T10:43:36;7.63;;;6.50;;
7843;SDS011;3967;48.702;9.326;2023-04-06T10:46:05;7.93;;;6.83;;
7843;SDS011;3967;48.702;9.326;2023-04-06T10:48:39;7.10;;;5.50;;
7843;SDS011;3967;48.702;9.326;2023-04-06T10:51:14;7.97;;;5.73;;
7843;SDS011;3967;48.702;9.326;2023-04-06T10:53:43;6.93;;;5.80;;
7843;SDS011;3967;48.702;9.326;2023-04-06T10:56:12;8.30;;;6.20;;
7843;SDS011;3967;48.702;9.326;2023-04-06T10:58:47;8.80;;;6.03;;
7843;SDS011;3967;48.702;9.326;2023-04-06T11:01:15;8.47;;;5.37;;
7843;SDS011;3967;48.702;9.326;2023-04-06T11:03:47;8.13;;;5.50;;
7843;SDS011;3967;48.702;9.326;2023-04-06T11:06:19;6.17;;;5.40;;
7843;SDS011;3967;48.702;9.326;2023-04-06T11:08:47;6.63;;;5.93;;
7843;SDS011;3967;48.702;9.326;2023-04-06T11:11:14;8.70;;;6.07;;
7843;SDS011;3967;48.702;9.326;2023-04-06T11:13:45;6.57;;;5.57;;
7843;SDS011;3967;48.702;9.326;2023-04-06T11:16:22;7.37;;;5.33;;
7843;SDS011;3967;48.702;9.326;2023-04-06T11:18:51;8.57;;;5.97;;
7843;SDS011;3967;48.702;9.326;2023-04-06T11:26:52;7.07;;;5.17;;
7843;SDS011;3967;48.702;9.326;2023-04-06T11:29:24;6.53;;;5.20;;
7843;SDS011;3967;48.702;9.326;2023-04-06T11:32:00;8.70;;;5.67;;
7843;SDS011;3967;48.702;9.326;2023-04-06T11:34:28;6.40;;;4.60;;
7843;SDS011;3967;48.702;9.326;2023-04-06T11:36:57;5.13;;;4.50;;
7843;SDS011;3967;48.702;9.326;2023-04-06T11:39:26;7.77;;;4.97;;
7843;SDS011;3967;48.702;9.326;2023-04-06T11:41:57;5.87;;;4.27;;
7843;SDS011;3967;48.702;9.326;2023-04-06T11:44:34;6.60;;;4.80;;
7843;SDS011;3967;48.702;9.326;2023-04-06T11:47:07;4.87;;;4.27;;
7843;SDS011;3967;48.702;9.326;2023-04-06T11:49:36;5.83;;;5.10;;
7843;SDS011;3967;48.702;9.326;2023-04-06T11:52:14;5.53;;;4.90;;
7843;SDS011;3967;48.702;9.326;2023-04-06T11:54:49;7.27;;;4.97;;
7843;SDS011;3967;48.702;9.326;2023-04-06T11:57:17;5.23;;;4.73;;
7843;SDS011;3967;48.702;9.326;2023-04-06T11:59:45;5.73;;;4.67;;
7843;SDS011;3967;48.702;9.326;2023-04-06T12:02:12;5.70;;;5.10;;
7843;SDS011;3967;48.702;9.326;2023-04-06T12:04:39;6.83;;;5.33;;
7843;SDS011;3967;48.702;9.326;2023-04-06T12:07:06;6.07;;;5.37;;
7843;SDS011;3967;48.702;9.326;2023-04-06T12:09:33;5.10;;;4.60;;
7843;SDS011;3967;48.702;9.326;2023-04-06T12:12:00;4.73;;;4.20;;
7843;SDS011;3967;48.702;9.326;2023-04-06T12:14:27;5.80;;;3.90;;
7843;SDS011;3967;48.702;9.326;2023-04-06T12:16:54;4.53;;;4.10;;
7843;SDS011;3967;48.702;9.326;2023-04-06T12:19:21;6.13;;;4.63;;
7843;SDS011;3967;48.702;9.326;2023-04-06T12:21:52;5.77;;;4.57;;
7843;SDS011;3967;48.702;9.326;2023-04-06T12:24:20;5.37;;;3.77;;
7843;SDS011;3967;48.702;9.326;2023-04-06T12:26:46;5.50;;;4.40;;
7843;SDS011;3967;48.702;9.326;2023-04-06T12:29:19;5.60;;;4.83;;
7843;SDS011;3967;48.702;9.326;2023-04-06T12:31:45;5.70;;;5.00;;
7843;SDS011;3967;48.702;9.326;2023-04-06T12:34:12;6.53;;;4.67;;
7843;SDS011;3967;48.702;9.326;2023-04-06T12:36:39;5.13;;;4.63;;
7843;SDS011;3967;48.702;9.326;2023-04-06T12:39:06;4.23;;;3.80;;
7843;SDS011;3967;48.702;9.326;2023-04-06T12:41:33;5.07;;;4.57;;
7843;SDS011;3967;48.702;9.326;2023-04-06T12:44:00;4.13;;;3.77;;
7843;SDS011;3967;48.702;9.326;2023-04-06T12:46:28;3.60;;;3.20;;
7843;SDS011;3967;48.702;9.326;2023-04-06T12:48:58;7.13;;;3.97;;
7843;SDS011;3967;48.702;9.326;2023-04-06T12:51:28;3.67;;;3.30;;
7843;SDS011;3967;48.702;9.326;2023-04-06T12:53:57;3.03;;;2.73;;
7843;SDS011;3967;48.702;9.326;2023-04-06T12:56:23;2.83;;;2.53;;
7843;SDS011;3967;48.702;9.326;2023-04-06T12:58:51;6.90;;;3.70;;
7843;SDS011;3967;48.702;9.326;2023-04-06T13:01:19;5.27;;;3.47;;
7843;SDS011;3967;48.702;9.326;2023-04-06T13:03:46;4.23;;;3.83;;
7843;SDS011;3967;48.702;9.326;2023-04-06T13:06:13;5.00;;;3.60;;
7843;SDS011;3967;48.702;9.326;2023-04-06T13:08:41;4.03;;;3.03;;
7843;SDS011;3967;48.702;9.326;2023-04-06T13:11:08;3.10;;;2.77;;
7843;SDS011;3967;48.702;9.326;2023-04-06T13:13:35;3.43;;;3.13;;
7843;SDS011;3967;48.702;9.326;2023-04-06T13:16:08;3.10;;;2.80;;
7843;SDS011;3967;48.702;9.326;2023-04-06T13:18:36;4.23;;;2.50;;
7843;SDS011;3967;48.702;9.326;2023-04-06T13:21:05;3.53;;;3.10;;
7843;SDS011;3967;48.702;9.326;2023-04-06T13:23:32;3.40;;;3.10;;
7843;SDS011;3967;48.702;9.326;2023-04-06T13:26:01;3.90;;;3.50;;
7843;SDS011;3967;48.702;9.326;2023-04-06T13:28:30;2.77;;;2.53;;
7843;SDS011;3967;48.702;9.326;2023-04-06T13:30:58;3.93;;;2.97;;
7843;SDS011;3967;48.702;9.326;2023-04-06T13:33:26;4.47;;;3.20;;
7843;SDS011;3967;48.702;9.326;2023-04-06T13:35:54;3.37;;;3.07;;
7843;SDS011;3967;48.702;9.326;2023-04-06T13:38:21;3.70;;;3.30;;
7843;SDS011;3967;48.702;9.326;2023-04-06T13:40:50;3.27;;;2.97;;
7843;SDS011;3967;48.702;9.326;2023-04-06T13:43:17;3.87;;;3.23;;
7843;SDS011;3967;48.702;9.326;2023-04-06T13:45:52;3.80;;;3.40;;
7843;SDS011;3967;48.702;9.326;2023-04-06T13:48:25;3.93;;;3.33;;
7843;SDS011;3967;48.702;9.326;2023-04-06T13:50:52;5.30;;;3.70;;
7843;SDS011;3967;48.702;9.326;2023-04-06T13:53:19;5.07;;;3.80;;
7843;SDS011;3967;48.702;9.326;2023-04-06T13:55:55;4.07;;;3.17;;
7843;SDS011;3967;48.702;9.326;2023-04-06T13:58:22;3.50;;;3.20;;
7843;SDS011;3967;48.702;9.326;2023-04-06T14:00:49;3.87;;;3.07;;
7843;SDS011;3967;48.702;9.326;2023-04-06T14:03:17;4.10;;;3.53;;
7843;SDS011;3967;48.702;9.326;2023-04-06T14:05:46;4.13;;;3.57;;
7843;SDS011;3967;48.702;9.326;2023-04-06T14:08:13;4.33;;;3.67;;
7843;SDS011;3967;48.702;9.326;2023-04-06T14:10:40;5.07;;;3.50;;
7843;SDS011;3967;48.702;9.326;2023-04-06T14:13:08;3.30;;;3.00;;
7843;SDS011;3967;48.702;9.326;2023-04-06T14:15:35;3.80;;;3.37;;
7843;SDS011;3967;48.702;9.326;2023-04-06T14:18:02;3.97;;;3.57;;
7843;SDS011;3967;48.702;9.326;2023-04-06T14:20:30;3.70;;;3.30;;
7843;SDS011;3967;48.702;9.326;2023-04-06T14:23:02;3.83;;;3.47;;
7843;SDS011;3967;48.702;9.326;2023-04-06T14:25:29;3.17;;;2.87;;
7843;SDS011;3967;48.702;9.326;2023-04-06T14:27:58;3.30;;;2.60;;
7843;SDS011;3967;48.702;9.326;2023-04-06T14:30:24;4.93;;;3.43;;
7843;SDS011;3967;48.702;9.326;2023-04-06T14:32:51;3.70;;;3.33;;
7843;SDS011;3967;48.702;9.326;2023-04-06T14:35:18;3.23;;;2.73;;
7843;SDS011;3967;48.702;9.326;2023-04-06T14:37:44;3.57;;;3.27;;
7843;SDS011;3967;48.702;9.326;2023-04-06T14:40:11;4.47;;;3.70;;
7843;SDS011;3967;48.702;9.326;2023-04-06T14:42:38;3.70;;;3.23;;
7843;SDS011;3967;48.702;9.326;2023-04-06T14:45:05;3.47;;;3.10;;
7843;SDS011;3967;48.702;9.326;2023-04-06T14:47:32;3.83;;;3.27;;
7843;SDS011;3967;48.702;9.326;2023-04-06T14:49:59;9.07;;;3.83;;
7843;SDS011;3967;48.702;9.326;2023-04-06T14:52:26;4.97;;;3.63;;
7843;SDS011;3967;48.702;9.326;2023-04-06T14:54:53;4.73;;;3.67;;
7843;SDS011;3967;48.702;9.326;2023-04-06T14:57:20;4.83;;;3.23;;
7843;SDS011;3967;48.702;9.326;2023-04-06T14:59:47;3.57;;;3.13;;
7843;SDS011;3967;48.702;9.326;2023-04-06T15:02:14;4.13;;;3.70;;
7843;SDS011;3967;48.702;9.326;2023-04-06T15:04:41;5.83;;;4.57;;
7843;SDS011;3967;48.702;9.326;2023-04-06T15:07:08;4.87;;;4.37;;
7843;SDS011;3967;48.702;9.326;2023-04-06T15:09:35;4.47;;;3.67;;
7843;SDS011;3967;48.702;9.326;2023-04-06T15:12:02;3.90;;;3.27;;
7843;SDS011;3967;48.702;9.326;2023-04-06T15:14:29;6.30;;;4.20;;
7843;SDS011;3967;48.702;9.326;2023-04-06T15:16:55;3.50;;;3.20;;
7843;SDS011;3967;48.702;9.326;2023-04-06T15:19:22;4.40;;;3.27;;
7843;SDS011;3967;48.702;9.326;2023-04-06T15:21:49;3.80;;;3.40;;
7843;SDS011;3967;48.702;9.326;2023-04-06T15:24:15;3.93;;;3.50;;